Arizona State University, AZ

5:46 PM MST on September 18, 2014 (GMT -0700)
Down Stream Dam | Change Station
CLOSE
Current Station
Personal Weather Station
Location: Tempe, AZ
Elevation: 1122 ft
Nearby Weather Stations

Elev 1122 ft 33.43 °N, 111.95 °W | Updated 1 minute ago

Clear
Clear
91.0 °F
Feels Like 91 °F
N
5.0
Wind Variable Wind from East
Gusts 9.0 mph

Today
High -- | Low -- °F
--% Chance of Precip.
Yesterday
High -- | Low -- °F
Precip. -- in
6:13 AM 6:29 PM
Waning Crescent, 23% visible
Pressure 29.63 in
Visibility 10.0 miles
Clouds Few 7000 ft
Heat Index 91 °F
Dew Point 61 °F
Humidity 37%
Rainfall 0.00 in
Snow Depth 0 in , 0 in
UV 1 out of 12
Pollen 4.10 out of 12
PM2.5 Good
Flu Activity Not available.
METAR KPHX 182351Z 26005KT 10SM FEW070 34/17 A2969 RMK AO2 SLP034 T03390172 10356 20311 56010

More Conditions Fewer Conditions

Pressure 29.63 in
Visibility 10.0 miles
Clouds Few 7000 ft
Heat Index 91 °F
Dew Point 61 °F
Humidity 37%
Rainfall 0.00 in
Snow Depth 0 in , 0 in
UV 1 out of 12
Pollen 4.10 out of 12
PM2.5 Good
Flu Activity Not available.
METAR KPHX 182351Z 26005KT 10SM FEW070 34/17 A2969 RMK AO2 SLP034 T03390172 10356 20311 56010

More Conditions Fewer Conditions

10-Day Weather Forecast

Almanac

Astronomy

Sep. 18, 2014 Rise Set
Actual Time 6:13 AM MST 6:29 PM MST
Civil Twilight 5:48 AM MST 6:54 PM MST
Nautical Twilight 5:19 AM MST 7:23 PM MST
Astronomical Twilight 4:49 AM MST 7:53 PM MST
Moon 1:19 AM MST (9/18) 3:12 PM MST (9/18)
Length of Visible Light 13h 06m
Length of Day
12h 16m
Tomorrow will be 2m 4s shorter.
Waning Crescent, 23% of the Moon is Illuminated
Today
Waning Crescent
Sep 24
New
Oct 1
First Quarter
Oct 8
Full
Oct 15
Last Quarter

Today's Extremes

State Highs State Lows

Community

WunderPhotos

Upload Photos

1,754,510 photos uploaded!

Nearby

Air Quality

  Air Quality AQ Index Pollutant
Yesterday Good
OZONE
Yesterday Good
PM10
Current Good
PM2.5
Thursday Good
OZONE
Thursday Good
PM10
Thursday Good
CO
Friday Good
OZONE
Friday Good
PM10
Friday Good
CO
Saturday Good
OZONE
Saturday Good
PM10
Saturday Good
CO

Snow Depth

Station Depth Elevation
Workman Creek 1 in 6900 ft
Maverick Fork 0 in 9200 ft
Beaver Head 0 in 7990 ft
Snowslide Canyon 0 in 9730 ft

Earthquake Activity

City Distance Mag. Time & Date
No recent earthquake activity has been reported nearby.
Minimum magnitude displayed is 2.5.

Coastal Water Temperatures

Place Temperature
No Stations Reporting

Nearby Weather Stations